createdAt,value
2023-05-17T00:00:10.422Z,10.06
2023-05-17T00:02:55.835Z,9.90
2023-05-17T00:05:40.908Z,9.85
2023-05-17T00:08:25.992Z,9.85
2023-05-17T00:11:11.074Z,9.85
2023-05-17T00:13:56.203Z,9.84
2023-05-17T00:16:41.087Z,9.92
2023-05-17T00:19:26.288Z,9.79
2023-05-17T00:22:11.724Z,9.77
2023-05-17T00:24:56.829Z,9.72
2023-05-17T00:27:41.790Z,9.62
2023-05-17T00:30:26.981Z,9.64
2023-05-17T00:33:12.101Z,9.64
2023-05-17T00:35:57.049Z,9.55
2023-05-17T00:38:42.281Z,9.27
2023-05-17T00:41:27.485Z,9.26
2023-05-17T00:44:12.525Z,9.21
2023-05-17T00:46:59.694Z,9.24
2023-05-17T00:49:46.101Z,9.28
2023-05-17T00:52:31.259Z,9.21
2023-05-17T00:55:16.580Z,9.18
2023-05-17T00:58:01.904Z,9.17
2023-05-17T01:00:47.386Z,9.17
2023-05-17T01:03:32.958Z,9.09
2023-05-17T01:06:18.335Z,9.02
2023-05-17T01:09:05.040Z,9.03
2023-05-17T01:12:18.839Z,9.05
2023-05-17T01:15:19.731Z,9.05
2023-05-17T01:18:23.855Z,8.87
2023-05-17T01:21:37.496Z,8.84
2023-05-17T01:24:26.418Z,8.71
2023-05-17T01:27:14.603Z,8.74
2023-05-17T01:30:02.378Z,8.55
2023-05-17T01:32:47.511Z,8.70
2023-05-17T01:35:32.746Z,8.70
2023-05-17T01:38:17.680Z,8.72
2023-05-17T01:41:14.324Z,8.66
2023-05-17T01:44:09.001Z,8.68
2023-05-17T01:47:12.013Z,8.63
2023-05-17T01:50:00.314Z,8.82
2023-05-17T01:52:51.385Z,8.71
2023-05-17T01:55:56.177Z,8.53
2023-05-17T01:58:48.782Z,8.46
2023-05-17T02:01:35.876Z,8.44
2023-05-17T02:04:21.471Z,8.48
2023-05-17T02:07:06.922Z,8.46
2023-05-17T02:09:52.271Z,8.48
2023-05-17T02:12:37.322Z,8.43
2023-05-17T02:15:22.586Z,8.44
2023-05-17T02:18:07.553Z,8.35
2023-05-17T02:20:53.299Z,8.34
2023-05-17T02:23:38.079Z,8.35
2023-05-17T02:26:22.924Z,8.27
2023-05-17T02:29:07.841Z,8.34
2023-05-17T02:31:52.757Z,8.28
2023-05-17T02:34:37.976Z,8.22
2023-05-17T02:37:22.903Z,8.15
2023-05-17T02:40:09.753Z,8.11
2023-05-17T02:42:55.000Z,8.02
2023-05-17T02:45:39.937Z,8.12
2023-05-17T02:48:25.035Z,7.87
2023-05-17T02:51:10.962Z,7.91
2023-05-17T02:53:55.993Z,7.99
2023-05-17T02:56:41.240Z,8.01
2023-05-17T02:59:26.258Z,7.94
2023-05-17T03:02:11.492Z,7.90
2023-05-17T03:04:56.648Z,7.82
2023-05-17T03:07:41.637Z,7.80
2023-05-17T03:10:26.534Z,7.75
2023-05-17T03:13:11.651Z,7.76
2023-05-17T03:15:56.582Z,7.76
2023-05-17T03:18:41.996Z,7.59
2023-05-17T03:21:27.218Z,7.63
2023-05-17T03:24:12.180Z,7.61
2023-05-17T03:26:57.169Z,7.52
2023-05-17T03:29:42.227Z,7.56
2023-05-17T03:32:27.377Z,7.39
2023-05-17T03:35:12.475Z,7.52
2023-05-17T03:37:57.507Z,7.56
2023-05-17T03:40:42.693Z,7.57
2023-05-17T03:43:28.746Z,7.52
2023-05-17T03:46:14.550Z,7.57
2023-05-17T03:48:59.678Z,7.54
2023-05-17T03:51:45.189Z,7.48
2023-05-17T03:54:30.691Z,7.38
2023-05-17T03:57:15.879Z,7.34
2023-05-17T04:00:00.906Z,7.39
2023-05-17T04:02:45.975Z,7.41
2023-05-17T04:05:31.184Z,7.41
2023-05-17T04:08:16.657Z,7.41
2023-05-17T04:11:10.557Z,7.43
2023-05-17T04:13:56.881Z,7.41
2023-05-17T04:16:42.018Z,7.36
2023-05-17T04:19:27.062Z,7.26
2023-05-17T04:22:12.632Z,7.31
2023-05-17T04:24:57.721Z,7.35
2023-05-17T04:27:42.732Z,7.32
2023-05-17T04:30:27.642Z,7.33
2023-05-17T04:33:14.238Z,7.28
2023-05-17T04:35:59.673Z,7.34
2023-05-17T04:38:44.739Z,7.31
2023-05-17T04:41:31.368Z,7.31
2023-05-17T04:44:17.139Z,7.30
2023-05-17T04:47:03.844Z,7.25
2023-05-17T04:49:48.811Z,7.26
2023-05-17T04:52:33.583Z,7.33
2023-05-17T04:55:18.646Z,7.36
2023-05-17T04:58:03.548Z,7.28
2023-05-17T05:00:48.475Z,7.46
2023-05-17T05:03:33.495Z,7.50
2023-05-17T05:06:18.806Z,7.58
2023-05-17T05:09:04.303Z,7.61
2023-05-17T05:11:49.582Z,7.60
2023-05-17T05:14:35.045Z,7.67
2023-05-17T05:17:20.048Z,7.67
2023-05-17T05:20:06.599Z,7.76
2023-05-17T05:22:52.005Z,7.85
2023-05-17T05:25:37.671Z,7.89
2023-05-17T05:28:22.602Z,8.00
2023-05-17T05:31:07.450Z,8.03
2023-05-17T05:33:52.718Z,8.16
2023-05-17T05:36:37.817Z,8.34
2023-05-17T05:39:22.942Z,8.44
2023-05-17T05:42:08.373Z,8.55
2023-05-17T05:44:53.600Z,8.61
2023-05-17T05:47:38.648Z,8.68
2023-05-17T05:50:24.042Z,8.81
2023-05-17T05:53:18.156Z,8.93
2023-05-17T05:56:04.549Z,9.05
2023-05-17T05:58:49.784Z,9.11
2023-05-17T06:01:34.757Z,9.22
2023-05-17T06:04:24.652Z,9.27
2023-05-17T06:07:15.458Z,9.39
2023-05-17T06:10:00.666Z,9.47
2023-05-17T06:12:45.987Z,9.69
2023-05-17T06:15:31.454Z,9.71
2023-05-17T06:18:16.851Z,9.88
2023-05-17T06:21:01.994Z,10.05
2023-05-17T06:23:47.250Z,10.12
2023-05-17T06:26:32.532Z,10.19
2023-05-17T06:29:17.965Z,10.23
2023-05-17T06:32:04.761Z,10.33
2023-05-17T06:34:50.578Z,10.37
2023-05-17T06:37:35.636Z,10.47
2023-05-17T06:40:20.981Z,10.61
2023-05-17T06:43:06.382Z,10.83
2023-05-17T06:45:51.485Z,10.91
2023-05-17T06:48:36.921Z,10.98
2023-05-17T06:51:22.189Z,11.16
2023-05-17T06:54:07.348Z,11.24
2023-05-17T06:56:52.365Z,11.20
2023-05-17T06:59:37.464Z,11.40
2023-05-17T07:02:22.823Z,11.56
2023-05-17T07:05:10.666Z,11.54
2023-05-17T07:07:56.018Z,11.70
2023-05-17T07:10:41.060Z,11.84
2023-05-17T07:13:25.910Z,11.91
2023-05-17T07:16:11.137Z,11.87
2023-05-17T07:18:56.511Z,11.97
2023-05-17T07:21:41.848Z,12.53
2023-05-17T07:24:26.868Z,12.70
2023-05-17T07:27:12.573Z,12.67
2023-05-17T07:29:57.533Z,12.64
2023-05-17T07:32:42.656Z,12.58
2023-05-17T07:35:28.235Z,12.72
2023-05-17T07:38:13.733Z,12.98
2023-05-17T07:40:58.900Z,13.07
2023-05-17T07:43:44.322Z,13.12
2023-05-17T07:46:29.580Z,13.13
2023-05-17T07:49:15.092Z,13.24
2023-05-17T07:52:00.299Z,13.43
2023-05-17T07:54:45.461Z,13.51
2023-05-17T07:57:30.460Z,13.64
2023-05-17T08:00:19.138Z,13.68
2023-05-17T08:03:04.340Z,13.88
2023-05-17T08:05:49.540Z,13.95
2023-05-17T08:08:34.875Z,14.00
2023-05-17T08:11:19.946Z,14.17
2023-05-17T08:14:05.547Z,14.39
2023-05-17T08:16:51.801Z,14.61
2023-05-17T08:19:37.259Z,14.76
2023-05-17T08:22:22.303Z,14.84
2023-05-17T08:25:07.557Z,14.83
2023-05-17T08:27:52.770Z,15.04
2023-05-17T08:30:38.179Z,15.05
2023-05-17T08:33:25.912Z,14.95
2023-05-17T08:36:11.264Z,15.17
2023-05-17T08:38:56.298Z,15.34
2023-05-17T08:41:41.701Z,15.51
2023-05-17T08:44:28.529Z,15.57
2023-05-17T08:47:25.960Z,15.62
2023-05-17T08:50:12.655Z,15.86
2023-05-17T08:52:58.625Z,16.01
2023-05-17T08:55:48.919Z,16.07
2023-05-17T08:58:52.432Z,16.28
2023-05-17T09:01:43.760Z,16.38
2023-05-17T09:04:30.953Z,16.10
2023-05-17T09:07:17.342Z,16.22
2023-05-17T09:10:05.594Z,16.40
2023-05-17T09:12:50.730Z,16.24
2023-05-17T09:15:37.923Z,16.02
2023-05-17T09:18:32.543Z,16.02
2023-05-17T09:21:17.856Z,15.95
2023-05-17T09:24:07.193Z,16.04
2023-05-17T09:26:53.803Z,16.16
2023-05-17T09:29:39.319Z,16.36
2023-05-17T09:32:28.521Z,16.66
2023-05-17T09:35:14.005Z,16.86
2023-05-17T09:38:06.108Z,17.01
2023-05-17T09:40:51.325Z,17.17
2023-05-17T09:43:37.107Z,17.38
2023-05-17T09:46:22.002Z,17.50
2023-05-17T09:49:09.378Z,17.60
2023-05-17T09:51:55.086Z,17.70
2023-05-17T09:54:41.252Z,17.70
2023-05-17T09:57:27.969Z,17.91
2023-05-17T10:00:13.715Z,17.44
2023-05-17T10:02:59.046Z,17.35
2023-05-17T10:05:45.872Z,17.83
2023-05-17T10:08:33.353Z,18.19
2023-05-17T10:11:22.883Z,18.27
2023-05-17T10:14:13.184Z,18.40
2023-05-17T10:16:59.036Z,18.47
2023-05-17T10:19:44.497Z,18.32
2023-05-17T10:22:30.301Z,18.36
2023-05-17T10:25:16.005Z,18.18
2023-05-17T10:28:01.387Z,18.22
2023-05-17T10:30:47.708Z,18.12
2023-05-17T10:33:33.297Z,18.22
2023-05-17T10:36:19.730Z,18.11
2023-05-17T10:39:09.735Z,18.00
2023-05-17T10:42:07.222Z,18.03
2023-05-17T10:45:01.574Z,18.46
2023-05-17T10:47:47.195Z,18.45
2023-05-17T10:50:32.555Z,18.74
2023-05-17T10:53:17.472Z,19.08
2023-05-17T10:56:02.535Z,19.20
2023-05-17T10:58:47.887Z,19.61
2023-05-17T11:01:52.625Z,19.97
2023-05-17T11:04:38.922Z,20.03
2023-05-17T11:07:27.282Z,20.31
2023-05-17T11:10:14.158Z,20.50
2023-05-17T11:12:59.627Z,20.34
2023-05-17T11:15:44.885Z,19.80
2023-05-17T11:18:46.296Z,19.63
2023-05-17T11:21:31.843Z,20.10
2023-05-17T11:24:27.246Z,20.21
2023-05-17T11:27:13.841Z,20.02
2023-05-17T11:30:08.080Z,19.88
2023-05-17T11:32:58.576Z,19.68
2023-05-17T11:35:44.748Z,19.55
2023-05-17T11:38:32.479Z,19.58
2023-05-17T11:41:26.883Z,19.65
2023-05-17T11:44:13.397Z,19.71
2023-05-17T11:47:03.816Z,20.15
2023-05-17T11:49:53.718Z,20.76
2023-05-17T11:52:40.606Z,21.33
2023-05-17T11:55:26.407Z,21.61
2023-05-17T11:58:13.894Z,22.09
2023-05-17T12:00:59.132Z,22.42
2023-05-17T12:03:44.585Z,22.32
2023-05-17T12:06:30.276Z,22.85
2023-05-17T12:09:17.658Z,22.85
2023-05-17T12:12:04.668Z,22.81
2023-05-17T12:14:50.746Z,22.93
2023-05-17T12:17:42.907Z,23.08
2023-05-17T12:20:29.246Z,22.12
2023-05-17T12:23:14.615Z,21.80
2023-05-17T12:26:07.656Z,21.47
2023-05-17T12:28:57.474Z,21.11
2023-05-17T12:31:50.178Z,20.72
2023-05-17T12:34:35.953Z,20.73
2023-05-17T12:37:21.064Z,20.97
2023-05-17T12:40:07.841Z,21.76
2023-05-17T12:43:01.574Z,21.98
2023-05-17T12:45:47.839Z,22.13
2023-05-17T12:48:34.380Z,21.79
2023-05-17T12:51:22.115Z,21.42
2023-05-17T12:54:07.391Z,21.06
2023-05-17T12:56:52.520Z,20.79
2023-05-17T12:59:49.647Z,20.67
2023-05-17T13:02:34.921Z,20.65
2023-05-17T13:05:23.076Z,20.77
2023-05-17T13:08:21.279Z,20.86
2023-05-17T13:11:14.100Z,20.74
2023-05-17T13:13:59.256Z,20.66
2023-05-17T13:16:45.809Z,20.68
2023-05-17T13:19:31.245Z,20.56
2023-05-17T13:22:16.524Z,20.49
2023-05-17T13:25:03.153Z,20.45
2023-05-17T13:27:51.048Z,20.37
2023-05-17T13:30:38.017Z,20.40
2023-05-17T13:33:23.639Z,20.27
2023-05-17T13:36:09.256Z,20.13
2023-05-17T13:38:56.681Z,19.99
2023-05-17T13:41:41.846Z,20.13
2023-05-17T13:44:27.294Z,19.89
2023-05-17T13:47:12.392Z,19.75
2023-05-17T13:50:03.962Z,19.75
2023-05-17T13:52:49.242Z,19.79
2023-05-17T13:55:34.649Z,19.77
2023-05-17T13:58:19.853Z,19.94
2023-05-17T14:01:05.105Z,19.97
2023-05-17T14:03:50.327Z,20.08
2023-05-17T14:06:35.615Z,20.11
2023-05-17T14:09:21.547Z,20.02
2023-05-17T14:12:06.928Z,20.06
2023-05-17T14:14:52.225Z,19.98
2023-05-17T14:17:37.320Z,20.08
2023-05-17T14:20:22.585Z,20.27
2023-05-17T14:23:07.520Z,20.28
2023-05-17T14:25:52.465Z,20.33
2023-05-17T14:28:38.990Z,20.48
2023-05-17T14:31:24.295Z,20.89
2023-05-17T14:34:09.665Z,20.93
2023-05-17T14:36:54.935Z,20.99
2023-05-17T14:39:39.780Z,21.91
2023-05-17T14:42:25.792Z,21.89
2023-05-17T14:45:11.149Z,21.54
2023-05-17T14:47:56.293Z,21.92
2023-05-17T14:50:41.748Z,22.18
2023-05-17T14:53:29.740Z,22.23
2023-05-17T14:56:15.297Z,21.98
2023-05-17T14:59:00.390Z,22.53
2023-05-17T15:01:45.421Z,22.17
2023-05-17T15:04:30.842Z,22.06
2023-05-17T15:07:17.344Z,22.15
2023-05-17T15:10:05.837Z,21.53
2023-05-17T15:12:52.334Z,21.04
2023-05-17T15:15:38.394Z,20.70
2023-05-17T15:18:23.955Z,20.46
2023-05-17T15:21:10.258Z,20.29
2023-05-17T15:23:55.336Z,20.15
2023-05-17T15:26:40.529Z,19.76
2023-05-17T15:29:25.797Z,19.44
2023-05-17T15:32:11.209Z,19.26
2023-05-17T15:34:56.367Z,19.08
2023-05-17T15:37:41.446Z,18.84
2023-05-17T15:40:26.836Z,18.77
2023-05-17T15:43:11.941Z,18.57
2023-05-17T15:45:56.853Z,18.49
2023-05-17T15:48:42.105Z,18.40
2023-05-17T15:51:27.400Z,18.27
2023-05-17T15:54:12.544Z,18.09
2023-05-17T15:56:57.755Z,18.11
2023-05-17T15:59:42.722Z,18.08
2023-05-17T16:02:27.961Z,18.03
2023-05-17T16:05:13.253Z,17.95
2023-05-17T16:07:58.080Z,17.84
2023-05-17T16:10:43.347Z,17.81
2023-05-17T16:13:28.466Z,17.75
2023-05-17T16:16:14.569Z,17.50
2023-05-17T16:19:01.114Z,17.59
2023-05-17T16:21:49.238Z,17.70
2023-05-17T16:24:46.817Z,17.72
2023-05-17T16:27:32.030Z,17.73
2023-05-17T16:30:18.347Z,17.74
2023-05-17T16:33:03.748Z,17.78
2023-05-17T16:35:50.067Z,17.82
2023-05-17T16:38:35.319Z,17.87
2023-05-17T16:41:21.248Z,17.99
2023-05-17T16:44:06.285Z,17.91
2023-05-17T16:46:51.772Z,17.97
2023-05-17T16:49:37.221Z,18.13
2023-05-17T16:52:22.918Z,18.19
2023-05-17T16:55:09.357Z,18.10
2023-05-17T16:57:54.307Z,18.17
2023-05-17T17:00:39.383Z,18.15
2023-05-17T17:03:24.614Z,18.02
2023-05-17T17:06:09.737Z,17.96
2023-05-17T17:08:55.060Z,17.90
2023-05-17T17:11:40.185Z,17.83
2023-05-17T17:14:26.052Z,17.67
2023-05-17T17:17:11.343Z,17.67
2023-05-17T17:19:56.584Z,17.69
2023-05-17T17:22:41.672Z,17.59
2023-05-17T17:25:26.992Z,17.66
2023-05-17T17:28:12.363Z,17.64
2023-05-17T17:30:58.467Z,17.54
2023-05-17T17:33:43.734Z,17.45
2023-05-17T17:36:30.345Z,17.41
2023-05-17T17:39:17.165Z,17.37
2023-05-17T17:42:02.439Z,17.29
2023-05-17T17:44:47.501Z,17.26
2023-05-17T17:47:32.387Z,17.23
2023-05-17T17:50:17.432Z,17.14
2023-05-17T17:53:02.321Z,17.11
2023-05-17T17:55:47.632Z,17.11
2023-05-17T17:58:32.654Z,17.01
2023-05-17T18:01:18.160Z,17.01
2023-05-17T18:04:05.154Z,17.06
2023-05-17T18:06:50.423Z,17.00
2023-05-17T18:09:35.824Z,16.94
2023-05-17T18:12:21.308Z,16.74
2023-05-17T18:15:06.888Z,16.80
2023-05-17T18:17:52.202Z,16.73
2023-05-17T18:20:37.241Z,16.74
2023-05-17T18:23:22.496Z,16.58
2023-05-17T18:26:07.581Z,16.38
2023-05-17T18:28:52.966Z,16.45
2023-05-17T18:31:38.085Z,16.24
2023-05-17T18:34:25.224Z,16.15
2023-05-17T18:37:10.207Z,16.13
2023-05-17T18:39:55.265Z,16.05
2023-05-17T18:42:40.606Z,15.96
2023-05-17T18:45:25.809Z,15.92
2023-05-17T18:48:10.993Z,15.79
2023-05-17T18:50:57.403Z,15.80
2023-05-17T18:53:42.826Z,15.72
2023-05-17T18:56:28.675Z,15.65
2023-05-17T18:59:13.727Z,15.70
2023-05-17T19:01:58.649Z,15.67
2023-05-17T19:04:44.089Z,15.51
2023-05-17T19:07:29.092Z,15.48
2023-05-17T19:10:14.563Z,15.37
2023-05-17T19:12:59.772Z,15.23
2023-05-17T19:15:45.012Z,15.09
2023-05-17T19:18:30.640Z,15.07
2023-05-17T19:21:15.818Z,14.99
2023-05-17T19:24:01.290Z,14.94
2023-05-17T19:26:46.546Z,14.90
2023-05-17T19:29:33.017Z,14.84
2023-05-17T19:32:19.822Z,14.73
2023-05-17T19:35:05.640Z,14.72
2023-05-17T19:37:50.591Z,14.64
2023-05-17T19:40:36.232Z,14.47
2023-05-17T19:43:21.203Z,14.49
2023-05-17T19:46:10.462Z,14.45
2023-05-17T19:48:57.241Z,14.40
2023-05-17T19:51:42.365Z,14.38
2023-05-17T19:54:30.579Z,14.23
2023-05-17T19:57:15.785Z,14.17
2023-05-17T20:00:00.754Z,14.09
2023-05-17T20:02:49.054Z,14.14
2023-05-17T20:05:34.393Z,13.95
2023-05-17T20:08:19.628Z,13.99
2023-05-17T20:11:06.572Z,13.92
2023-05-17T20:13:51.853Z,13.89
2023-05-17T20:16:37.092Z,13.93
2023-05-17T20:19:22.579Z,13.91
2023-05-17T20:22:07.831Z,13.84
2023-05-17T20:24:53.376Z,13.60
2023-05-17T20:27:38.911Z,13.69
2023-05-17T20:30:24.194Z,13.72
2023-05-17T20:33:10.632Z,13.72
2023-05-17T20:35:56.101Z,13.66
2023-05-17T20:38:43.118Z,13.61
2023-05-17T20:41:28.100Z,13.63
2023-05-17T20:44:19.528Z,13.53
2023-05-17T20:47:05.912Z,13.45
2023-05-17T20:49:51.039Z,13.37
2023-05-17T20:52:39.495Z,13.31
2023-05-17T20:55:25.140Z,13.20
2023-05-17T20:58:11.257Z,13.18
2023-05-17T21:00:57.075Z,13.17
2023-05-17T21:03:43.258Z,13.02
2023-05-17T21:06:29.707Z,13.13
2023-05-17T21:09:18.854Z,13.05
2023-05-17T21:12:04.202Z,12.97
2023-05-17T21:14:59.869Z,13.00
2023-05-17T21:17:53.180Z,13.03
2023-05-17T21:20:39.098Z,12.92
2023-05-17T21:23:24.427Z,12.91
2023-05-17T21:26:09.745Z,12.80
2023-05-17T21:28:54.764Z,12.89
2023-05-17T21:31:39.894Z,12.82
2023-05-17T21:34:25.334Z,12.84
2023-05-17T21:37:10.365Z,12.84
2023-05-17T21:39:55.698Z,12.86
2023-05-17T21:42:41.011Z,12.85
2023-05-17T21:45:26.606Z,12.79
2023-05-17T21:48:11.747Z,12.75
2023-05-17T21:50:57.328Z,12.72
2023-05-17T21:53:42.618Z,12.75
2023-05-17T21:56:27.684Z,12.71
2023-05-17T21:59:12.935Z,12.54
2023-05-17T22:01:58.420Z,12.58
2023-05-17T22:04:43.690Z,12.58
2023-05-17T22:07:28.902Z,12.58
2023-05-17T22:10:14.370Z,12.51
2023-05-17T22:13:02.082Z,12.54
2023-05-17T22:15:47.215Z,12.50
2023-05-17T22:18:32.654Z,12.43
2023-05-17T22:21:19.136Z,12.47
2023-05-17T22:24:04.063Z,12.41
2023-05-17T22:26:49.394Z,12.44
2023-05-17T22:29:34.368Z,12.38
2023-05-17T22:32:19.343Z,12.42
2023-05-17T22:35:04.993Z,12.34
2023-05-17T22:37:51.788Z,12.28
2023-05-17T22:40:36.989Z,12.21
2023-05-17T22:43:21.853Z,12.23
2023-05-17T22:46:06.833Z,12.22
2023-05-17T22:48:52.686Z,12.21
2023-05-17T22:51:38.853Z,12.20
2023-05-17T22:54:24.731Z,12.19
2023-05-17T22:57:09.671Z,12.14
2023-05-17T22:59:54.873Z,12.02
2023-05-17T23:02:39.969Z,12.14
2023-05-17T23:05:25.121Z,12.11
2023-05-17T23:08:10.206Z,11.99
2023-05-17T23:10:55.694Z,12.05
2023-05-17T23:13:41.904Z,12.00
2023-05-17T23:16:28.206Z,12.08
2023-05-17T23:19:13.690Z,12.07
2023-05-17T23:22:06.032Z,12.06
2023-05-17T23:24:51.299Z,11.98
2023-05-17T23:27:36.434Z,11.90
2023-05-17T23:30:21.869Z,11.83
2023-05-17T23:33:06.905Z,11.91
2023-05-17T23:35:53.515Z,11.89
2023-05-17T23:38:39.140Z,11.86
2023-05-17T23:41:25.424Z,11.89
2023-05-17T23:44:10.888Z,11.87
2023-05-17T23:46:56.304Z,11.87
2023-05-17T23:49:41.438Z,11.84
2023-05-17T23:52:29.854Z,11.85
2023-05-17T23:55:15.267Z,11.82
2023-05-17T23:58:00.172Z,11.79
